createdAt,value
2018-12-14T00:00:34.030Z,1040.66
2018-12-14T00:01:34.015Z,1040.66
2018-12-14T00:02:33.999Z,1040.74
2018-12-14T00:03:33.984Z,1040.71
2018-12-14T00:04:33.970Z,1040.69
2018-12-14T00:05:33.954Z,1040.65
2018-12-14T00:06:33.939Z,1040.69
2018-12-14T00:07:33.922Z,1040.71
2018-12-14T00:08:33.913Z,1040.65
2018-12-14T00:09:33.891Z,1040.67
2018-12-14T00:10:33.877Z,1040.68
2018-12-14T00:11:33.860Z,1040.68
2018-12-14T00:12:33.845Z,1040.75
2018-12-14T00:13:33.830Z,1040.77
2018-12-14T00:14:33.814Z,1040.82
2018-12-14T00:15:33.798Z,1040.84
2018-12-14T00:16:33.785Z,1040.9
2018-12-14T00:17:33.768Z,1040.87
2018-12-14T00:18:33.751Z,1040.87
2018-12-14T00:19:33.735Z,1040.87
2018-12-14T00:20:33.720Z,1040.81
2018-12-14T00:21:33.705Z,1040.8
2018-12-14T00:22:33.689Z,1040.81
2018-12-14T00:23:33.674Z,1040.84
2018-12-14T00:24:33.658Z,1040.87
2018-12-14T00:25:33.643Z,1040.93
2018-12-14T00:26:33.878Z,1040.95
2018-12-14T00:27:33.612Z,1041.01
2018-12-14T00:28:33.596Z,1041.02
2018-12-14T00:29:33.587Z,1041.02
2018-12-14T00:30:33.566Z,1041.02
2018-12-14T00:31:33.552Z,1041.02
2018-12-14T00:32:33.533Z,1041.05
2018-12-14T00:33:33.565Z,1041.04
2018-12-14T00:34:33.501Z,1041.03
2018-12-14T00:35:33.488Z,1041.05
2018-12-14T00:36:33.473Z,1041.03
2018-12-14T00:37:33.456Z,1041.01
2018-12-14T00:38:33.440Z,1041.02
2018-12-14T00:39:33.425Z,1041.05
2018-12-14T00:40:33.409Z,1041.07
2018-12-14T00:41:33.393Z,1041.07
2018-12-14T00:42:33.389Z,1041.09
2018-12-14T00:43:33.363Z,1041.13
2018-12-14T00:44:33.345Z,1041.08
2018-12-14T00:45:33.330Z,1041.14
2018-12-14T00:46:33.314Z,1041.1
2018-12-14T00:47:33.314Z,1041.13
2018-12-14T00:48:33.286Z,1041.12
2018-12-14T00:49:33.267Z,1041.14
2018-12-14T00:50:33.254Z,1041.17
2018-12-14T00:51:33.239Z,1041.15
2018-12-14T00:52:33.222Z,1041.13
2018-12-14T00:53:33.206Z,1041.17
2018-12-14T00:54:33.194Z,1041.17
2018-12-14T00:55:33.175Z,1041.13
2018-12-14T00:56:33.161Z,1041.14
2018-12-14T00:57:33.143Z,1041.1
2018-12-14T00:58:33.128Z,1041.1
2018-12-14T00:59:33.112Z,1041.11
2018-12-14T01:00:33.097Z,1041.08
2018-12-14T01:01:33.082Z,1041.13
2018-12-14T01:02:33.065Z,1041.16
2018-12-14T01:03:33.051Z,1041.16
2018-12-14T01:04:33.034Z,1041.16
2018-12-14T01:05:33.020Z,1041.22
2018-12-14T01:06:33.002Z,1041.25
2018-12-14T01:07:32.990Z,1041.24
2018-12-14T01:08:32.973Z,1041.31
2018-12-14T01:09:32.957Z,1041.21
2018-12-14T01:10:32.940Z,1041.26
2018-12-14T01:11:32.966Z,1041.29
2018-12-14T01:12:32.909Z,1041.34
2018-12-14T01:13:32.894Z,1041.29
2018-12-14T01:14:32.882Z,1041.33
2018-12-14T01:15:32.862Z,1041.33
2018-12-14T01:16:32.846Z,1041.39
2018-12-14T01:17:32.830Z,1041.44
2018-12-14T01:18:32.815Z,1041.45
2018-12-14T01:19:32.799Z,1041.45
2018-12-14T01:20:32.784Z,1041.46
2018-12-14T01:21:32.768Z,1041.5
2018-12-14T01:22:32.753Z,1041.51
2018-12-14T01:23:32.737Z,1041.46
2018-12-14T01:24:32.720Z,1041.52
2018-12-14T01:25:32.705Z,1041.51
2018-12-14T01:26:32.689Z,1041.56
2018-12-14T01:27:32.673Z,1041.56
2018-12-14T01:28:32.658Z,1041.59
2018-12-14T01:29:32.642Z,1041.55
2018-12-14T01:30:32.625Z,1041.54
2018-12-14T01:31:32.610Z,1041.57
2018-12-14T01:32:32.594Z,1041.59
2018-12-14T01:33:32.578Z,1041.58
2018-12-14T01:34:32.561Z,1041.61
2018-12-14T01:35:32.545Z,1041.59
2018-12-14T01:36:32.529Z,1041.59
2018-12-14T01:37:32.514Z,1041.61
2018-12-14T01:38:32.498Z,1041.62
2018-12-14T01:39:32.484Z,1041.63
2018-12-14T01:40:32.466Z,1041.64
2018-12-14T01:41:32.452Z,1041.68
2018-12-14T01:42:32.436Z,1041.65
2018-12-14T01:43:32.418Z,1041.64
2018-12-14T01:44:32.402Z,1041.61
2018-12-14T01:45:32.386Z,1041.62
2018-12-14T01:46:32.371Z,1041.66
2018-12-14T01:47:32.417Z,1041.61
2018-12-14T01:48:32.338Z,1041.67
2018-12-14T01:49:32.324Z,1041.69
2018-12-14T01:50:32.305Z,1041.72
2018-12-14T01:51:32.290Z,1041.71
2018-12-14T01:52:32.274Z,1041.79
2018-12-14T01:53:32.258Z,1041.77
2018-12-14T01:54:32.243Z,1041.82
2018-12-14T01:55:32.227Z,1041.78
2018-12-14T01:56:32.210Z,1041.77
2018-12-14T01:57:32.193Z,1041.79
2018-12-14T01:58:32.178Z,1041.8
2018-12-14T01:59:32.162Z,1041.76
2018-12-14T02:00:32.147Z,1041.82
2018-12-14T02:01:32.128Z,1041.8
2018-12-14T02:02:32.113Z,1041.85
2018-12-14T02:03:32.097Z,1041.82
2018-12-14T02:04:32.082Z,1041.87
2018-12-14T02:05:32.065Z,1041.85
2018-12-14T02:06:32.049Z,1041.87
2018-12-14T02:07:32.033Z,1041.86
2018-12-14T02:08:32.015Z,1041.83
2018-12-14T02:09:32.000Z,1041.9
2018-12-14T02:10:31.984Z,1041.94
2018-12-14T02:11:31.968Z,1041.93
2018-12-14T02:12:31.951Z,1041.95
2018-12-14T02:13:31.935Z,1041.98
2018-12-14T02:14:31.920Z,1041.94
2018-12-14T02:15:31.904Z,1041.98
2018-12-14T02:16:31.888Z,1041.93
2018-12-14T02:17:31.871Z,1041.94
2018-12-14T02:18:31.856Z,1041.99
2018-12-14T02:19:31.839Z,1042.01
2018-12-14T02:20:31.822Z,1041.96
2018-12-14T02:21:31.806Z,1041.99
2018-12-14T02:22:31.790Z,1041.97
2018-12-14T02:23:31.775Z,1042
2018-12-14T02:24:31.758Z,1042.06
2018-12-14T02:25:31.742Z,1042
2018-12-14T02:26:31.725Z,1041.99
2018-12-14T02:27:31.709Z,1042.01
2018-12-14T02:28:31.696Z,1042.02
2018-12-14T02:29:31.677Z,1042
2018-12-14T02:30:31.660Z,1041.97
2018-12-14T02:31:31.645Z,1042.04
2018-12-14T02:32:31.628Z,1041.99
2018-12-14T02:33:31.612Z,1042.02
2018-12-14T02:34:31.598Z,1042.04
2018-12-14T02:35:31.580Z,1041.99
2018-12-14T02:36:31.566Z,1041.94
2018-12-14T02:37:31.546Z,1041.91
2018-12-14T02:38:31.531Z,1041.92
2018-12-14T02:39:31.597Z,1041.91
2018-12-14T02:40:31.498Z,1041.88
2018-12-14T02:41:31.486Z,1041.87
2018-12-14T02:42:31.468Z,1041.94
2018-12-14T02:43:31.452Z,1041.89
2018-12-14T02:44:31.435Z,1041.95
2018-12-14T02:45:31.417Z,1041.95
2018-12-14T02:46:31.400Z,1041.98
2018-12-14T02:47:31.384Z,1042
2018-12-14T02:48:31.367Z,1042.03
2018-12-14T02:49:31.350Z,1042.06
2018-12-14T02:50:31.338Z,1042.08
2018-12-14T02:51:31.321Z,1042.09
2018-12-14T02:52:31.302Z,1042.1
2018-12-14T02:53:31.286Z,1042.18
2018-12-14T02:54:31.279Z,1042.16
2018-12-14T02:55:31.254Z,1042.18
2018-12-14T02:56:31.235Z,1042.24
2018-12-14T02:57:31.220Z,1042.25
2018-12-14T02:58:31.207Z,1042.32
2018-12-14T02:59:31.188Z,1042.36
2018-12-14T03:00:31.170Z,1042.39
2018-12-14T03:01:31.157Z,1042.46
2018-12-14T03:02:31.387Z,1042.47
2018-12-14T03:03:31.120Z,1042.47
2018-12-14T03:04:31.104Z,1042.44
2018-12-14T03:05:31.087Z,1042.4
2018-12-14T03:06:31.072Z,1042.43
2018-12-14T03:07:31.053Z,1042.42
2018-12-14T03:08:31.037Z,1042.42
2018-12-14T03:09:31.021Z,1042.42
2018-12-14T03:10:31.004Z,1042.43
2018-12-14T03:11:30.988Z,1042.4
2018-12-14T03:12:30.971Z,1042.46
2018-12-14T03:13:30.972Z,1042.49
2018-12-14T03:14:30.937Z,1042.49
2018-12-14T03:15:30.921Z,1042.52
2018-12-14T03:16:30.905Z,1042.52
2018-12-14T03:17:30.888Z,1042.53
2018-12-14T03:18:30.869Z,1042.51
2018-12-14T03:19:30.854Z,1042.56
2018-12-14T03:20:30.836Z,1042.58
2018-12-14T03:21:30.821Z,1042.57
2018-12-14T03:22:30.802Z,1042.58
2018-12-14T03:23:30.786Z,1042.54
2018-12-14T03:24:30.770Z,1042.58
2018-12-14T03:25:30.752Z,1042.56
2018-12-14T03:26:30.740Z,1042.59
2018-12-14T03:27:30.717Z,1042.6
2018-12-14T03:28:30.702Z,1042.65
2018-12-14T03:29:30.683Z,1042.7
2018-12-14T03:30:30.668Z,1042.71
2018-12-14T03:31:30.650Z,1042.73
2018-12-14T03:32:30.636Z,1042.75
2018-12-14T03:33:30.615Z,1042.75
2018-12-14T03:34:30.598Z,1042.74
2018-12-14T03:35:30.581Z,1042.78
2018-12-14T03:36:30.564Z,1042.82
2018-12-14T03:37:30.547Z,1042.81
2018-12-14T03:38:30.531Z,1042.82
2018-12-14T03:39:30.513Z,1042.84
2018-12-14T03:40:30.496Z,1042.83
2018-12-14T03:41:30.479Z,1042.87
2018-12-14T03:42:34.086Z,1042.88
2018-12-14T03:43:30.444Z,1042.85
2018-12-14T03:44:30.428Z,1042.89
2018-12-14T03:45:30.411Z,1042.89
2018-12-14T03:46:30.411Z,1042.88
2018-12-14T03:47:30.376Z,1042.91
2018-12-14T03:48:30.358Z,1042.89
2018-12-14T03:49:30.342Z,1042.89
2018-12-14T03:50:30.324Z,1042.9
2018-12-14T03:51:30.307Z,1042.84
2018-12-14T03:52:30.289Z,1042.89
2018-12-14T03:53:30.274Z,1042.83
2018-12-14T03:54:30.254Z,1042.8
2018-12-14T03:55:30.240Z,1042.81
2018-12-14T03:56:30.221Z,1042.78
2018-12-14T03:57:30.204Z,1042.75
2018-12-14T03:58:30.192Z,1042.74
2018-12-14T03:59:30.168Z,1042.76
2018-12-14T04:00:30.152Z,1042.75
2018-12-14T04:01:30.134Z,1042.76
2018-12-14T04:02:30.117Z,1042.72
2018-12-14T04:03:30.101Z,1042.73
2018-12-14T04:04:30.085Z,1042.72
2018-12-14T04:05:30.070Z,1042.73
2018-12-14T04:06:30.049Z,1042.7
2018-12-14T04:07:30.038Z,1042.68
2018-12-14T04:08:30.014Z,1042.67
2018-12-14T04:09:30.026Z,1042.69
2018-12-14T04:10:29.984Z,1042.67
2018-12-14T04:11:29.963Z,1042.67
2018-12-14T04:12:29.944Z,1042.71
2018-12-14T04:13:29.928Z,1042.67
2018-12-14T04:14:29.912Z,1042.65
2018-12-14T04:15:29.893Z,1042.63
2018-12-14T04:16:29.876Z,1042.62
2018-12-14T04:17:29.859Z,1042.65
2018-12-14T04:18:29.842Z,1042.65
2018-12-14T04:19:29.824Z,1042.55
2018-12-14T04:20:29.807Z,1042.6
2018-12-14T04:21:29.789Z,1042.6
2018-12-14T04:22:29.772Z,1042.58
2018-12-14T04:23:29.755Z,1042.54
2018-12-14T04:24:29.736Z,1042.52
2018-12-14T04:25:29.721Z,1042.52
2018-12-14T04:26:29.704Z,1042.51
2018-12-14T04:27:29.685Z,1042.49
2018-12-14T04:28:29.668Z,1042.54
2018-12-14T04:29:29.651Z,1042.52
2018-12-14T04:30:29.635Z,1042.5
2018-12-14T04:31:29.616Z,1042.44
2018-12-14T04:32:29.602Z,1042.44
2018-12-14T04:33:29.582Z,1042.4
2018-12-14T04:34:29.566Z,1042.34
2018-12-14T04:35:29.549Z,1042.33
2018-12-14T04:36:29.531Z,1042.29
2018-12-14T04:37:29.513Z,1042.23
2018-12-14T04:38:29.495Z,1042.2
2018-12-14T04:39:31.153Z,1042.18
2018-12-14T04:40:29.463Z,1042.18
2018-12-14T04:41:29.458Z,1042.13
2018-12-14T04:42:29.427Z,1042.13
2018-12-14T04:43:29.410Z,1042.12
2018-12-14T04:44:29.395Z,1042.11
2018-12-14T04:45:29.377Z,1042.13
2018-12-14T04:46:29.358Z,1042.12
2018-12-14T04:47:29.344Z,1042.1
2018-12-14T04:48:29.327Z,1042.07
2018-12-14T04:49:29.308Z,1042.05
2018-12-14T04:50:29.291Z,1042.06
2018-12-14T04:51:29.274Z,1042
2018-12-14T04:52:29.270Z,1042.02
2018-12-14T04:53:29.240Z,1042.04
2018-12-14T04:54:29.225Z,1042.04
2018-12-14T04:55:29.207Z,1042.02
2018-12-14T04:56:29.196Z,1042.01
2018-12-14T04:57:29.176Z,1041.96
2018-12-14T04:58:29.158Z,1041.98
2018-12-14T04:59:29.141Z,1041.94
2018-12-14T05:00:29.124Z,1041.89
2018-12-14T05:01:29.107Z,1041.9
2018-12-14T05:02:29.090Z,1041.84
2018-12-14T05:03:29.085Z,1041.85
2018-12-14T05:04:29.056Z,1041.84
2018-12-14T05:05:29.040Z,1041.83
2018-12-14T05:06:29.023Z,1041.8
2018-12-14T05:07:29.005Z,1041.78
2018-12-14T05:08:28.989Z,1041.78
2018-12-14T05:09:28.973Z,1041.79
2018-12-14T05:10:28.958Z,1041.79
2018-12-14T05:11:28.939Z,1041.8
2018-12-14T05:12:28.923Z,1041.79
2018-12-14T05:13:28.908Z,1041.8
2018-12-14T05:14:28.895Z,1041.76
2018-12-14T05:15:28.875Z,1041.68
2018-12-14T05:16:28.856Z,1041.67
2018-12-14T05:17:28.841Z,1041.69
2018-12-14T05:18:28.824Z,1041.68
2018-12-14T05:19:28.807Z,1041.71
2018-12-14T05:20:28.792Z,1041.68
2018-12-14T05:21:28.775Z,1041.71
2018-12-14T05:22:28.758Z,1041.71
2018-12-14T05:23:28.744Z,1041.72
2018-12-14T05:24:28.726Z,1041.73
2018-12-14T05:25:28.709Z,1041.74
2018-12-14T05:26:29.009Z,1041.72
2018-12-14T05:27:28.677Z,1041.72
2018-12-14T05:28:28.660Z,1041.73
2018-12-14T05:29:28.643Z,1041.72
2018-12-14T05:30:28.628Z,1041.73
2018-12-14T05:31:28.612Z,1041.71
2018-12-14T05:32:28.595Z,1041.66
2018-12-14T05:33:28.578Z,1041.66
2018-12-14T05:34:28.564Z,1041.67
2018-12-14T05:35:28.546Z,1041.66
2018-12-14T05:36:28.530Z,1041.63
2018-12-14T05:37:28.515Z,1041.59
2018-12-14T05:38:28.498Z,1041.59
2018-12-14T05:39:28.481Z,1041.57
2018-12-14T05:40:28.464Z,1041.55
2018-12-14T05:41:28.448Z,1041.58
2018-12-14T05:42:28.432Z,1041.56
2018-12-14T05:43:28.416Z,1041.56
2018-12-14T05:44:28.400Z,1041.56
2018-12-14T05:45:28.383Z,1041.55
2018-12-14T05:46:28.368Z,1041.54
2018-12-14T05:47:28.351Z,1041.58
2018-12-14T05:48:28.335Z,1041.61
2018-12-14T05:49:28.320Z,1041.62
2018-12-14T05:50:28.303Z,1041.59
2018-12-14T05:51:28.287Z,1041.6
2018-12-14T05:52:28.270Z,1041.61
2018-12-14T05:53:28.254Z,1041.64
2018-12-14T05:54:28.238Z,1041.61
2018-12-14T05:55:28.222Z,1041.58
2018-12-14T05:56:28.206Z,1041.59
2018-12-14T05:57:28.196Z,1041.61
2018-12-14T05:58:28.172Z,1041.59
2018-12-14T05:59:28.160Z,1041.59
2018-12-14T06:00:28.142Z,1041.57
2018-12-14T06:01:28.126Z,1041.58
2018-12-14T06:02:28.109Z,1041.61
2018-12-14T06:03:28.092Z,1041.65
2018-12-14T06:04:28.078Z,1041.68
2018-12-14T06:05:28.064Z,1041.71
2018-12-14T06:06:28.045Z,1041.73
2018-12-14T06:07:28.030Z,1041.69
2018-12-14T06:08:28.014Z,1041.72
2018-12-14T06:09:27.997Z,1041.74
2018-12-14T06:10:27.980Z,1041.75
2018-12-14T06:11:27.965Z,1041.73
2018-12-14T06:12:27.949Z,1041.78
2018-12-14T06:13:27.932Z,1041.84
2018-12-14T06:14:27.915Z,1041.83
2018-12-14T06:15:27.900Z,1041.84
2018-12-14T06:16:27.884Z,1041.88
2018-12-14T06:17:27.867Z,1041.85
2018-12-14T06:18:27.852Z,1041.85
2018-12-14T06:19:27.836Z,1041.89
2018-12-14T06:20:27.819Z,1041.93
2018-12-14T06:21:27.804Z,1041.94
2018-12-14T06:22:27.788Z,1041.95
2018-12-14T06:23:27.773Z,1041.91
2018-12-14T06:24:27.754Z,1041.89
2018-12-14T06:25:27.741Z,1041.92
2018-12-14T06:26:27.723Z,1041.89
2018-12-14T06:27:27.706Z,1041.92
2018-12-14T06:28:27.691Z,1041.9
2018-12-14T06:29:27.675Z,1041.89
2018-12-14T06:30:27.658Z,1041.95
2018-12-14T06:31:27.641Z,1041.96
2018-12-14T06:32:27.625Z,1041.97
2018-12-14T06:33:27.609Z,1041.97
2018-12-14T06:34:27.593Z,1041.99
2018-12-14T06:35:27.576Z,1041.96
2018-12-14T06:36:27.562Z,1041.95
2018-12-14T06:37:27.545Z,1041.96
2018-12-14T06:38:27.530Z,1041.98
2018-12-14T06:39:27.513Z,1041.94
2018-12-14T06:40:27.496Z,1041.89
2018-12-14T06:41:27.487Z,1041.9
2018-12-14T06:42:27.465Z,1041.86
2018-12-14T06:43:27.449Z,1041.88
2018-12-14T06:44:27.440Z,1041.89
2018-12-14T06:45:27.416Z,1041.89
2018-12-14T06:46:27.401Z,1041.92
2018-12-14T06:47:27.384Z,1041.95
2018-12-14T06:48:27.368Z,1042.01
2018-12-14T06:49:27.353Z,1042.04
2018-12-14T06:50:27.335Z,1042.07
2018-12-14T06:51:27.319Z,1042.07
2018-12-14T06:52:27.303Z,1042.11
2018-12-14T06:53:27.288Z,1042.1
2018-12-14T06:54:27.271Z,1042.12
2018-12-14T06:55:27.256Z,1042.11
2018-12-14T06:56:27.239Z,1042.15
2018-12-14T06:57:27.224Z,1042.13
2018-12-14T06:58:27.206Z,1042.04
2018-12-14T06:59:27.191Z,1042.07
2018-12-14T07:00:27.176Z,1042.13
2018-12-14T07:01:27.159Z,1042.15
2018-12-14T07:02:27.142Z,1042.17
2018-12-14T07:03:27.126Z,1042.14
2018-12-14T07:04:27.109Z,1042.1
2018-12-14T07:05:27.094Z,1042.1
2018-12-14T07:06:27.078Z,1042.03
2018-12-14T07:07:27.064Z,1041.97
2018-12-14T07:08:27.045Z,1042.03
2018-12-14T07:09:27.030Z,1041.99
2018-12-14T07:10:27.014Z,1041.99
2018-12-14T07:11:26.998Z,1041.94
2018-12-14T07:12:26.987Z,1041.98
2018-12-14T07:13:26.967Z,1041.94
2018-12-14T07:14:26.955Z,1041.92
2018-12-14T07:15:26.935Z,1042.01
2018-12-14T07:16:26.918Z,1042.03
2018-12-14T07:17:26.902Z,1042.07
2018-12-14T07:18:26.888Z,1042.08
2018-12-14T07:19:26.870Z,1042.12
2018-12-14T07:20:26.857Z,1042.1
2018-12-14T07:21:26.839Z,1042.12
2018-12-14T07:22:26.822Z,1042.11
2018-12-14T07:23:26.806Z,1042.07
2018-12-14T07:24:26.792Z,1042.04
2018-12-14T07:25:26.777Z,1042.03
2018-12-14T07:26:26.758Z,1042.01
2018-12-14T07:27:26.743Z,1041.99
2018-12-14T07:28:26.727Z,1041.97
2018-12-14T07:29:26.713Z,1042.01
2018-12-14T07:30:26.694Z,1041.98
2018-12-14T07:31:26.679Z,1042
2018-12-14T07:32:26.665Z,1042.13
2018-12-14T07:33:26.647Z,1042.08
2018-12-14T07:34:26.630Z,1042.05
2018-12-14T07:35:26.615Z,1042.05
2018-12-14T07:36:26.600Z,1042.02
2018-12-14T07:37:26.583Z,1041.98
2018-12-14T07:38:26.573Z,1041.96
2018-12-14T07:39:26.553Z,1041.97
2018-12-14T07:40:26.536Z,1041.95
2018-12-14T07:41:26.520Z,1042.02
2018-12-14T07:42:26.504Z,1042.01
2018-12-14T07:43:28.346Z,1042.05
2018-12-14T07:44:26.538Z,1042
2018-12-14T07:45:26.458Z,1042.05
2018-12-14T07:46:26.440Z,1042.08
2018-12-14T07:47:26.425Z,1042.1
2018-12-14T07:48:26.410Z,1042.12
2018-12-14T07:49:26.394Z,1042.16
2018-12-14T07:50:26.379Z,1042.2
2018-12-14T07:51:26.364Z,1042.16
2018-12-14T07:52:26.345Z,1042.16
2018-12-14T07:53:26.330Z,1042.18
2018-12-14T07:54:26.314Z,1042.16
2018-12-14T07:55:26.298Z,1042.2
2018-12-14T07:56:26.283Z,1042.16
2018-12-14T07:57:26.269Z,1042.2
2018-12-14T07:58:26.251Z,1042.21
2018-12-14T07:59:26.234Z,1042.2
2018-12-14T08:00:26.219Z,1042.22
2018-12-14T08:01:26.202Z,1042.23
2018-12-14T08:02:26.188Z,1042.26
2018-12-14T08:03:26.171Z,1042.27
2018-12-14T08:04:26.155Z,1042.31
2018-12-14T08:05:26.141Z,1042.24
2018-12-14T08:06:26.126Z,1042.26
2018-12-14T08:07:26.107Z,1042.26
2018-12-14T08:08:26.094Z,1042.26
2018-12-14T08:09:26.078Z,1042.25
2018-12-14T08:10:26.060Z,1042.22
2018-12-14T08:11:26.045Z,1042.19
2018-12-14T08:12:26.032Z,1042.22
2018-12-14T08:13:26.014Z,1042.21
2018-12-14T08:14:25.996Z,1042.2
2018-12-14T08:15:25.981Z,1042.21
2018-12-14T08:16:25.966Z,1042.15
2018-12-14T08:17:25.950Z,1042.16
2018-12-14T08:18:25.933Z,1042.17
2018-12-14T08:19:25.919Z,1042.11
2018-12-14T08:20:25.903Z,1042.11
2018-12-14T08:21:25.886Z,1042.15
2018-12-14T08:22:25.871Z,1042.15
2018-12-14T08:23:25.855Z,1042.17
2018-12-14T08:24:25.840Z,1042.16
2018-12-14T08:25:25.846Z,1042.16
2018-12-14T08:26:25.808Z,1042.17
2018-12-14T08:27:25.792Z,1042.2
2018-12-14T08:28:25.776Z,1042.19
2018-12-14T08:29:25.764Z,1042.16
2018-12-14T08:30:25.746Z,1042.13
2018-12-14T08:31:25.731Z,1042.17
2018-12-14T08:32:25.714Z,1042.19
2018-12-14T08:33:25.699Z,1042.19
2018-12-14T08:34:25.683Z,1042.23
2018-12-14T08:35:25.669Z,1042.22
2018-12-14T08:36:25.652Z,1042.19
2018-12-14T08:37:25.637Z,1042.2
2018-12-14T08:38:25.620Z,1042.15
2018-12-14T08:39:25.618Z,1042.13
2018-12-14T08:40:25.590Z,1042.03
2018-12-14T08:41:25.574Z,1042.09
2018-12-14T08:42:25.560Z,1042.03
2018-12-14T08:43:25.544Z,1042.08
2018-12-14T08:44:25.527Z,1042.06
2018-12-14T08:45:25.512Z,1042.03
2018-12-14T08:46:25.497Z,1042.04
2018-12-14T08:47:26.143Z,1042.02
2018-12-14T08:48:25.471Z,1042.06
2018-12-14T08:49:25.453Z,1042.05
2018-12-14T08:50:25.435Z,1042.11
2018-12-14T08:51:25.670Z,1042.1
2018-12-14T08:52:25.405Z,1042.06
2018-12-14T08:53:25.390Z,1042.07
2018-12-14T08:54:25.380Z,1042.08
2018-12-14T08:55:25.359Z,1042.04
2018-12-14T08:56:25.343Z,1042.01
2018-12-14T08:57:25.328Z,1042.01
2018-12-14T08:58:25.313Z,1041.97
2018-12-14T08:59:25.297Z,1042.01
2018-12-14T09:00:25.284Z,1041.99
2018-12-14T09:01:25.267Z,1042.02
2018-12-14T09:02:25.254Z,1042
2018-12-14T09:03:25.237Z,1041.99
2018-12-14T09:04:25.224Z,1042.01
2018-12-14T09:05:25.208Z,1042
2018-12-14T09:06:25.193Z,1041.94
2018-12-14T09:07:25.178Z,1041.91
2018-12-14T09:08:25.164Z,1041.87
2018-12-14T09:09:25.146Z,1041.9
2018-12-14T09:10:25.131Z,1041.9
2018-12-14T09:11:25.116Z,1041.9
2018-12-14T09:12:25.101Z,1041.88
2018-12-14T09:13:25.087Z,1041.81
2018-12-14T09:14:25.072Z,1041.83
2018-12-14T09:15:25.056Z,1041.81
2018-12-14T09:16:25.041Z,1041.74
2018-12-14T09:17:25.026Z,1041.71
2018-12-14T09:18:25.011Z,1041.71
2018-12-14T09:19:24.997Z,1041.68
2018-12-14T09:20:24.981Z,1041.69
2018-12-14T09:21:24.970Z,1041.69
2018-12-14T09:22:24.953Z,1041.69
2018-12-14T09:23:24.937Z,1041.67
2018-12-14T09:24:24.925Z,1041.65
2018-12-14T09:25:24.908Z,1041.63
2018-12-14T09:26:24.892Z,1041.66
2018-12-14T09:27:24.879Z,1041.71
2018-12-14T09:28:24.865Z,1041.73
2018-12-14T09:29:24.852Z,1041.76
2018-12-14T09:30:24.833Z,1041.81
2018-12-14T09:31:24.819Z,1041.78
2018-12-14T09:32:24.804Z,1041.8
2018-12-14T09:33:24.790Z,1041.82
2018-12-14T09:34:24.774Z,1041.8
2018-12-14T09:35:24.764Z,1041.8
2018-12-14T09:36:24.748Z,1041.83
2018-12-14T09:37:24.732Z,1041.8
2018-12-14T09:38:24.717Z,1041.8
2018-12-14T09:39:24.702Z,1041.78
2018-12-14T09:40:24.687Z,1041.76
2018-12-14T09:41:24.672Z,1041.74
2018-12-14T09:42:24.657Z,1041.73
2018-12-14T09:43:24.643Z,1041.64
2018-12-14T09:44:24.629Z,1041.67
2018-12-14T09:45:24.613Z,1041.67
2018-12-14T09:46:24.599Z,1041.67
2018-12-14T09:47:24.584Z,1041.67
2018-12-14T09:48:24.570Z,1041.66
2018-12-14T09:49:24.555Z,1041.69
2018-12-14T09:50:24.542Z,1041.7
2018-12-14T09:51:24.526Z,1041.75
2018-12-14T09:52:24.512Z,1041.72
2018-12-14T09:53:24.497Z,1041.75
2018-12-14T09:54:24.482Z,1041.75
2018-12-14T09:55:24.468Z,1041.8
2018-12-14T09:56:24.456Z,1041.75
2018-12-14T09:57:24.440Z,1041.8
2018-12-14T09:58:24.425Z,1041.8
2018-12-14T09:59:24.411Z,1041.79
2018-12-14T10:00:24.394Z,1041.82
2018-12-14T10:01:24.380Z,1041.85
2018-12-14T10:02:24.366Z,1041.83
2018-12-14T10:03:24.351Z,1041.8
2018-12-14T10:04:24.337Z,1041.74
2018-12-14T10:05:24.323Z,1041.73
2018-12-14T10:06:24.308Z,1041.67
2018-12-14T10:07:24.292Z,1041.71
2018-12-14T10:08:24.278Z,1041.7
2018-12-14T10:09:24.265Z,1041.7
2018-12-14T10:10:24.269Z,1041.71
2018-12-14T10:11:24.234Z,1041.73
2018-12-14T10:12:24.225Z,1041.71
2018-12-14T10:13:24.208Z,1041.77
2018-12-14T10:14:24.255Z,1041.73
2018-12-14T10:15:24.176Z,1041.76
2018-12-14T10:16:24.163Z,1041.82
2018-12-14T10:17:24.147Z,1041.82
2018-12-14T10:18:24.135Z,1041.8
2018-12-14T10:19:24.118Z,1041.8
2018-12-14T10:20:24.105Z,1041.8
2018-12-14T10:21:24.089Z,1041.73
2018-12-14T10:22:24.076Z,1041.74
2018-12-14T10:23:24.061Z,1041.7
2018-12-14T10:24:24.046Z,1041.67
2018-12-14T10:25:24.031Z,1041.64
2018-12-14T10:26:24.018Z,1041.69
2018-12-14T10:27:24.003Z,1041.62
2018-12-14T10:28:23.989Z,1041.63
2018-12-14T10:29:23.974Z,1041.56
2018-12-14T10:30:23.959Z,1041.52
2018-12-14T10:31:23.945Z,1041.51
2018-12-14T10:32:23.929Z,1041.48
2018-12-14T10:33:23.916Z,1041.49
2018-12-14T10:34:23.905Z,1041.48
2018-12-14T10:35:23.890Z,1041.58
2018-12-14T10:36:23.871Z,1041.6
2018-12-14T10:37:23.857Z,1041.56
2018-12-14T10:38:23.843Z,1041.61
2018-12-14T10:39:23.829Z,1041.62
2018-12-14T10:40:23.814Z,1041.64
2018-12-14T10:41:23.800Z,1041.65
2018-12-14T10:42:23.786Z,1041.69
2018-12-14T10:43:23.771Z,1041.76
2018-12-14T10:44:23.756Z,1041.74
2018-12-14T10:45:23.742Z,1041.73
2018-12-14T10:46:23.728Z,1041.78
2018-12-14T10:47:23.713Z,1041.79
2018-12-14T10:48:23.698Z,1041.82
2018-12-14T10:49:23.684Z,1041.86
2018-12-14T10:50:23.670Z,1041.85
2018-12-14T10:51:23.654Z,1041.91
2018-12-14T10:52:23.644Z,1041.9
2018-12-14T10:53:23.628Z,1041.9
2018-12-14T10:54:23.611Z,1041.87
2018-12-14T10:55:23.597Z,1041.84
2018-12-14T10:56:23.582Z,1041.81
2018-12-14T10:57:23.568Z,1041.82
2018-12-14T10:58:23.553Z,1041.77
2018-12-14T10:59:23.539Z,1041.67
2018-12-14T11:00:23.526Z,1041.66
2018-12-14T11:01:23.510Z,1041.62
2018-12-14T11:02:23.499Z,1041.56
2018-12-14T11:03:23.479Z,1041.5
2018-12-14T11:04:23.944Z,1041.49
2018-12-14T11:05:23.450Z,1041.47
2018-12-14T11:06:23.437Z,1041.51
2018-12-14T11:07:23.423Z,1041.6
2018-12-14T11:08:23.408Z,1041.62
2018-12-14T11:09:23.393Z,1041.69
2018-12-14T11:10:23.378Z,1041.69
2018-12-14T11:11:23.364Z,1041.73
2018-12-14T11:12:23.349Z,1041.74
2018-12-14T11:13:23.334Z,1041.78
2018-12-14T11:14:23.320Z,1041.75
2018-12-14T11:15:23.305Z,1041.78
2018-12-14T11:16:23.290Z,1041.84
2018-12-14T11:17:23.276Z,1041.81
2018-12-14T11:18:23.322Z,1041.79
2018-12-14T11:19:23.248Z,1041.78
2018-12-14T11:20:23.232Z,1041.82
2018-12-14T11:21:23.221Z,1041.81
2018-12-14T11:22:23.205Z,1041.82
2018-12-14T11:23:23.189Z,1041.87
2018-12-14T11:24:23.175Z,1041.95
2018-12-14T11:25:23.159Z,1041.95
2018-12-14T11:26:23.145Z,1041.94
2018-12-14T11:27:23.129Z,1041.97
2018-12-14T11:28:23.117Z,1041.96
2018-12-14T11:29:23.103Z,1042.01
2018-12-14T11:30:23.086Z,1042
2018-12-14T11:31:23.071Z,1042.01
2018-12-14T11:32:23.058Z,1042.02
2018-12-14T11:33:23.042Z,1041.99
2018-12-14T11:34:29.523Z,1041.97
2018-12-14T11:35:23.011Z,1041.98
2018-12-14T11:36:22.997Z,1041.99
2018-12-14T11:37:22.983Z,1042.02
2018-12-14T11:38:22.968Z,1041.97
2018-12-14T11:39:22.953Z,1041.94
2018-12-14T11:40:22.938Z,1041.96
2018-12-14T11:41:22.924Z,1041.95
2018-12-14T11:42:22.909Z,1041.98
2018-12-14T11:43:22.893Z,1042.06
2018-12-14T11:44:22.880Z,1042.05
2018-12-14T11:45:22.867Z,1042.07
2018-12-14T11:46:22.859Z,1042.11
2018-12-14T11:47:22.835Z,1042.2
2018-12-14T11:48:22.820Z,1042.22
2018-12-14T11:49:22.804Z,1042.27
2018-12-14T11:50:22.790Z,1042.27
2018-12-14T11:51:22.776Z,1042.35
2018-12-14T11:52:22.760Z,1042.33
2018-12-14T11:53:22.745Z,1042.36
2018-12-14T11:54:22.730Z,1042.36
2018-12-14T11:55:22.718Z,1042.35
2018-12-14T11:56:22.703Z,1042.37
2018-12-14T11:57:22.688Z,1042.37
2018-12-14T11:58:22.672Z,1042.36
2018-12-14T11:59:22.657Z,1042.37
2018-12-14T12:00:22.641Z,1042.36
2018-12-14T12:01:22.626Z,1042.32
2018-12-14T12:02:22.612Z,1042.29
2018-12-14T12:03:22.597Z,1042.27
2018-12-14T12:04:22.581Z,1042.22
2018-12-14T12:05:22.567Z,1042.23
2018-12-14T12:06:22.553Z,1042.18
2018-12-14T12:07:22.538Z,1042.21
2018-12-14T12:08:22.521Z,1042.22